Time;durP1;ratioP1;P1;durP2;ratioP2;P2;SDS_P1;SDS_P2;PMS_P1;PMS_P2;Temp;Humidity;BMP_temperature;BMP_pressure;BME280_temperature;BME280_humidity;BME280_pressure;Samples;Min_cycle;Max_cycle;Signal;HPM_P1;HPM_P2
2022/01/14 00:00:07;;;;;;;37.10;19.50;;;;;;;;;;5103024;28;20204;-68
2022/01/14 00:02:34;;;;;;;34.10;18.88;;;;;;;;;;5102975;28;20200;-69
2022/01/14 00:05:00;;;;;;;39.40;21.13;;;;;;;;;;5102179;28;20200;-69
2022/01/14 00:07:27;;;;;;;35.17;19.77;;;;;;;;;;5102938;28;20455;-69
2022/01/14 00:09:54;;;;;;;33.03;19.67;;;;;;;;;;5102828;28;20222;-69
2022/01/14 00:12:26;;;;;;;35.90;20.02;;;;;;;;;;5103208;28;20519;-69
2022/01/14 00:15:11;;;;;;;32.25;21.00;;;;;;;;;;5102207;28;20214;-69
2022/01/14 00:17:37;;;;;;;35.75;22.30;;;;;;;;;;5102965;28;20211;-69
2022/01/14 00:20:04;;;;;;;33.38;20.77;;;;;;;;;;5102624;28;20208;-69
2022/01/14 00:22:31;;;;;;;35.97;21.08;;;;;;;;;;5102850;28;20207;-69
2022/01/14 00:33:16;;;;;;;31.92;19.30;;;;;;;;;;5102182;28;20249;-66
2022/01/14 00:35:43;;;;;;;35.33;20.35;;;;;;;;;;5101723;28;20563;-66
2022/01/14 00:38:10;;;;;;;32.83;20.17;;;;;;;;;;5102328;28;20216;-66
2022/01/14 00:40:37;;;;;;;34.05;20.77;;;;;;;;;;5102520;28;20215;-66
2022/01/14 00:43:05;;;;;;;35.92;20.45;;;;;;;;;;5102546;28;20211;-66
2022/01/14 00:45:31;;;;;;;35.15;21.13;;;;;;;;;;5101499;28;20418;-66
2022/01/14 00:47:59;;;;;;;33.63;21.02;;;;;;;;;;5102387;28;20237;-66
2022/01/14 00:50:26;;;;;;;34.95;21.75;;;;;;;;;;5101949;28;20200;-66
2022/01/14 00:52:52;;;;;;;37.90;21.92;;;;;;;;;;5102436;28;20200;-66
2022/01/14 00:55:26;;;;;;;33.13;20.85;;;;;;;;;;5101432;28;20195;-65
2022/01/14 01:00:38;;;;;;;33.38;21.63;;;;;;;;;;5102227;28;20240;-65
2022/01/14 01:03:05;;;;;;;38.72;21.95;;;;;;;;;;5102033;28;20207;-66
2022/01/14 01:05:31;;;;;;;32.47;20.15;;;;;;;;;;5104556;28;20515;-68
2022/01/14 01:08:04;;;;;;;32.60;21.52;;;;;;;;;;5107385;28;20438;-68
2022/01/14 01:10:30;;;;;;;39.50;22.08;;;;;;;;;;5106636;28;20263;-68
2022/01/14 01:13:03;;;;;;;34.78;22.20;;;;;;;;;;5106560;28;20396;-68
2022/01/14 01:15:29;;;;;;;34.30;22.08;;;;;;;;;;5106181;28;20218;-68
2022/01/14 01:17:57;;;;;;;35.50;21.48;;;;;;;;;;5106727;28;20425;-68
2022/01/14 01:20:23;;;;;;;32.72;21.45;;;;;;;;;;5106063;28;20223;-68
2022/01/14 01:22:53;;;;;;;38.35;22.58;;;;;;;;;;5106356;28;20200;-68
2022/01/14 01:25:23;;;;;;;37.25;22.90;;;;;;;;;;5106482;28;20370;-68
2022/01/14 01:27:50;;;;;;;37.67;23.63;;;;;;;;;;5106203;28;20275;-68
2022/01/14 01:30:49;;;;;;;38.58;23.30;;;;;;;;;;5121421;28;20199;-68
2022/01/14 01:33:05;;;;;;;38.30;22.73;;;;;;;;;;5126150;28;20230;-68
2022/01/14 01:35:33;;;;;;;39.55;23.70;;;;;;;;;;5125238;28;20218;-68
2022/01/14 01:37:59;;;;;;;38.03;24.58;;;;;;;;;;5126264;28;20219;-68
2022/01/14 01:40:27;;;;;;;42.20;25.70;;;;;;;;;;5125719;28;20483;-68
2022/01/14 01:42:55;;;;;;;33.22;23.55;;;;;;;;;;5126337;28;20225;-68
2022/01/14 01:45:25;;;;;;;37.78;24.77;;;;;;;;;;5125908;28;20214;-68
2022/01/14 01:47:52;;;;;;;40.80;23.73;;;;;;;;;;5126394;28;20203;-68
2022/01/14 01:50:20;;;;;;;37.50;23.85;;;;;;;;;;5125381;28;20199;-68
2022/01/14 01:52:47;;;;;;;37.97;23.70;;;;;;;;;;5123954;28;20374;-68
2022/01/14 01:55:14;;;;;;;36.25;23.58;;;;;;;;;;5105627;28;20200;-68
2022/01/14 01:57:42;;;;;;;36.50;23.27;;;;;;;;;;5105098;28;20195;-68
2022/01/14 02:00:10;;;;;;;35.03;23.42;;;;;;;;;;5105895;28;20213;-68
2022/01/14 02:02:37;;;;;;;37.85;23.20;;;;;;;;;;5105377;28;20215;-68
2022/01/14 02:05:04;;;;;;;35.88;23.35;;;;;;;;;;5105084;28;20199;-68
2022/01/14 02:07:33;;;;;;;40.38;24.83;;;;;;;;;;5105779;28;20208;-68
2022/01/14 02:10:00;;;;;;;34.53;23.52;;;;;;;;;;5117293;28;20199;-69
2022/01/14 02:12:34;;;;;;;39.03;23.80;;;;;;;;;;5126169;28;20270;-69
2022/01/14 02:15:10;;;;;;;36.08;24.02;;;;;;;;;;5120034;28;20210;-69
2022/01/14 02:18:03;;;;;;;36.53;23.50;;;;;;;;;;5119015;28;20199;-69
2022/01/14 02:23:08;;;;;;;37.42;23.02;;;;;;;;;;5125735;28;20202;-69
2022/01/14 02:25:36;;;;;;;32.30;22.50;;;;;;;;;;5118617;28;20212;-68
2022/01/14 02:28:05;;;;;;;38.58;22.80;;;;;;;;;;5104954;28;20195;-68
2022/01/14 02:30:35;;;;;;;37.33;22.75;;;;;;;;;;5104794;28;20200;-68
2022/01/14 02:33:01;;;;;;;39.40;21.85;;;;;;;;;;5107402;28;20204;-66
2022/01/14 02:35:29;;;;;;;38.25;23.58;;;;;;;;;;5117817;28;20199;-66
2022/01/14 02:37:56;;;;;;;37.30;23.63;;;;;;;;;;5119103;28;20390;-66
2022/01/14 02:40:23;;;;;;;38.17;24.00;;;;;;;;;;5105849;28;20200;-66
2022/01/14 02:42:49;;;;;;;36.47;22.55;;;;;;;;;;5099112;28;20200;-66
2022/01/14 02:45:16;;;;;;;38.83;22.92;;;;;;;;;;5118539;28;20215;-66
2022/01/14 02:47:43;;;;;;;30.45;22.02;;;;;;;;;;5121195;28;20199;-66
2022/01/14 02:50:14;;;;;;;37.17;23.35;;;;;;;;;;5112051;28;20519;-66
2022/01/14 02:52:54;;;;;;;35.20;23.05;;;;;;;;;;5102322;28;20238;-66
2022/01/14 02:55:22;;;;;;;37.55;23.15;;;;;;;;;;5102199;28;20195;-66
2022/01/14 02:57:50;;;;;;;35.47;22.35;;;;;;;;;;5102413;28;20199;-66
2022/01/14 03:00:18;;;;;;;40.03;23.10;;;;;;;;;;5113966;28;20214;-66
2022/01/14 03:02:46;;;;;;;38.42;24.55;;;;;;;;;;5122717;28;20206;-66
2022/01/14 03:05:12;;;;;;;41.47;21.95;;;;;;;;;;5121852;28;20214;-68
2022/01/14 03:07:39;;;;;;;37.33;22.73;;;;;;;;;;5122954;28;20534;-65
2022/01/14 03:10:09;;;;;;;41.20;23.00;;;;;;;;;;5112240;28;20196;-65
2022/01/14 03:12:35;;;;;;;38.25;22.58;;;;;;;;;;5102278;28;20535;-65
2022/01/14 03:15:02;;;;;;;38.72;23.42;;;;;;;;;;5101537;28;20200;-65
2022/01/14 03:17:29;;;;;;;33.65;21.95;;;;;;;;;;5102024;28;20249;-65
2022/01/14 03:19:57;;;;;;;36.00;21.27;;;;;;;;;;5103080;28;20227;-65
2022/01/14 03:22:28;;;;;;;34.70;21.55;;;;;;;;;;5101847;28;20207;-65
2022/01/14 03:27:40;;;;;;;39.33;21.92;;;;;;;;;;5101776;28;20241;-65
2022/01/14 03:30:07;;;;;;;31.85;21.23;;;;;;;;;;5115612;28;20210;-65
2022/01/14 03:32:33;;;;;;;35.08;22.05;;;;;;;;;;5121981;28;20211;-65
2022/01/14 03:34:59;;;;;;;36.38;22.40;;;;;;;;;;5121468;28;20207;-65
2022/01/14 03:37:26;;;;;;;33.88;21.52;;;;;;;;;;5110059;28;20200;-65
2022/01/14 03:39:52;;;;;;;41.83;22.67;;;;;;;;;;5113253;28;20421;-65
2022/01/14 03:42:19;;;;;;;38.90;22.63;;;;;;;;;;5122030;28;20199;-65
2022/01/14 03:44:46;;;;;;;37.05;21.50;;;;;;;;;;5121142;28;20238;-65
2022/01/14 03:47:13;;;;;;;36.42;23.27;;;;;;;;;;5121910;28;20214;-65
2022/01/14 03:49:39;;;;;;;35.13;22.50;;;;;;;;;;5112236;28;20492;-65
2022/01/14 03:52:06;;;;;;;37.03;22.63;;;;;;;;;;5101569;28;20200;-65
2022/01/14 03:54:32;;;;;;;35.00;22.48;;;;;;;;;;5100656;28;20206;-65
2022/01/14 03:56:58;;;;;;;40.42;21.00;;;;;;;;;;5101135;28;20199;-65
2022/01/14 03:59:25;;;;;;;33.15;21.05;;;;;;;;;;5108395;28;20207;-65
2022/01/14 04:01:53;;;;;;;34.13;20.92;;;;;;;;;;5121400;28;20206;-65
2022/01/14 04:04:19;;;;;;;33.88;21.42;;;;;;;;;;5110823;28;20199;-65
2022/01/14 04:06:46;;;;;;;36.67;20.45;;;;;;;;;;5114960;28;20191;-65
2022/01/14 04:09:12;;;;;;;39.03;20.17;;;;;;;;;;5121508;28;20195;-65
2022/01/14 04:11:39;;;;;;;34.17;20.05;;;;;;;;;;5121826;28;20232;-65
2022/01/14 04:15:36;;;;;;;34.35;20.58;;;;;;;;;;5121325;28;20470;-65
2022/01/14 04:16:58;;;;;;;36.25;20.85;;;;;;;;;;5105884;28;20196;-65
2022/01/14 04:19:25;;;;;;;33.08;21.13;;;;;;;;;;5120504;28;20281;-67
2022/01/14 04:21:52;;;;;;;35.70;21.23;;;;;;;;;;5123990;28;20215;-67
2022/01/14 04:24:18;;;;;;;34.47;20.35;;;;;;;;;;5123129;28;20213;-69
2022/01/14 04:26:44;;;;;;;33.85;20.58;;;;;;;;;;5121281;28;20199;-67
2022/01/14 04:29:11;;;;;;;35.65;20.08;;;;;;;;;;5122136;28;20195;-68
2022/01/14 04:31:37;;;;;;;33.65;20.45;;;;;;;;;;5108865;28;20195;-65
2022/01/14 04:34:05;;;;;;;36.70;21.35;;;;;;;;;;5100801;28;20215;-65
2022/01/14 04:36:32;;;;;;;33.22;20.77;;;;;;;;;;5110875;28;20213;-65
2022/01/14 04:38:58;;;;;;;35.28;21.17;;;;;;;;;;5121022;28;20467;-65
2022/01/14 04:41:25;;;;;;;34.33;20.52;;;;;;;;;;5120893;28;20535;-65
2022/01/14 04:43:51;;;;;;;36.45;21.50;;;;;;;;;;5121098;28;20199;-67
2022/01/14 04:46:49;;;;;;;33.45;20.35;;;;;;;;;;5110822;28;20216;-67
2022/01/14 04:49:17;;;;;;;36.42;21.20;;;;;;;;;;5100305;28;20201;-67
2022/01/14 04:51:43;;;;;;;35.45;22.38;;;;;;;;;;5099795;28;20407;-67
2022/01/14 04:54:10;;;;;;;36.17;21.95;;;;;;;;;;5100148;28;20199;-65
2022/01/14 04:56:36;;;;;;;33.55;20.60;;;;;;;;;;5110619;28;20199;-65
2022/01/14 04:59:03;;;;;;;34.85;21.65;;;;;;;;;;5120434;28;20214;-65
2022/01/14 05:01:29;;;;;;;34.28;20.48;;;;;;;;;;5120567;28;20395;-65
2022/01/14 05:03:57;;;;;;;37.10;21.73;;;;;;;;;;5120212;28;20216;-65
2022/01/14 05:06:25;;;;;;;36.60;22.27;;;;;;;;;;5109997;28;20559;-65
2022/01/14 05:08:52;;;;;;;33.05;20.50;;;;;;;;;;5099959;28;20241;-65
2022/01/14 05:11:37;;;;;;;37.15;21.50;;;;;;;;;;5099284;28;20391;-65
2022/01/14 05:14:03;;;;;;;31.30;20.20;;;;;;;;;;5099873;28;20275;-65
2022/01/14 05:16:29;;;;;;;31.13;20.20;;;;;;;;;;5108744;28;20206;-65
2022/01/14 05:18:56;;;;;;;30.10;19.75;;;;;;;;;;5119971;28;20214;-65
2022/01/14 05:21:22;;;;;;;34.30;21.90;;;;;;;;;;5120204;28;20202;-65
2022/01/14 05:23:50;;;;;;;31.55;19.98;;;;;;;;;;5107284;28;20200;-65
2022/01/14 05:26:16;;;;;;;34.60;20.52;;;;;;;;;;5106460;28;20335;-65
2022/01/14 05:28:43;;;;;;;32.38;20.30;;;;;;;;;;5120522;28;20392;-66
2022/01/14 05:31:09;;;;;;;33.67;19.75;;;;;;;;;;5119845;28;20203;-65
2022/01/14 05:33:36;;;;;;;34.72;19.77;;;;;;;;;;5122391;28;20199;-68
2022/01/14 05:36:02;;;;;;;32.63;20.52;;;;;;;;;;5116724;28;20208;-68
2022/01/14 05:38:29;;;;;;;33.95;20.05;;;;;;;;;;5102696;28;20403;-68
2022/01/14 05:40:56;;;;;;;36.53;20.23;;;;;;;;;;5102570;28;20219;-68
2022/01/14 05:43:23;;;;;;;30.92;19.17;;;;;;;;;;5102327;28;20392;-68
2022/01/14 05:45:49;;;;;;;28.15;18.60;;;;;;;;;;5104801;28;20232;-68
2022/01/14 05:48:16;;;;;;;35.70;20.67;;;;;;;;;;5122851;28;20206;-68
2022/01/14 05:50:42;;;;;;;38.30;21.40;;;;;;;;;;5110130;28;20195;-66
2022/01/14 05:53:08;;;;;;;32.88;20.10;;;;;;;;;;5099804;28;20507;-65
2022/01/14 05:55:35;;;;;;;28.48;19.33;;;;;;;;;;5100198;28;20192;-65
2022/01/14 05:58:03;;;;;;;31.23;20.35;;;;;;;;;;5119954;28;20236;-65
2022/01/14 06:00:29;;;;;;;31.88;19.60;;;;;;;;;;5119764;28;20222;-66
2022/01/14 06:02:56;;;;;;;39.05;21.10;;;;;;;;;;5119664;28;20401;-68
2022/01/14 06:05:22;;;;;;;32.30;20.23;;;;;;;;;;5119090;28;20199;-66
2022/01/14 06:07:49;;;;;;;34.45;21.15;;;;;;;;;;5100222;28;20199;-66
2022/01/14 06:10:15;;;;;;;31.88;21.00;;;;;;;;;;5099146;28;20196;-66
2022/01/14 06:12:42;;;;;;;31.38;20.52;;;;;;;;;;5099095;28;20504;-64
2022/01/14 06:15:10;;;;;;;30.98;21.23;;;;;;;;;;5098929;28;20367;-64
2022/01/14 06:17:37;;;;;;;34.47;20.92;;;;;;;;;;5115949;28;20396;-64
2022/01/14 06:20:03;;;;;;;34.22;20.58;;;;;;;;;;5121021;28;20215;-69
2022/01/14 06:22:30;;;;;;;32.20;20.65;;;;;;;;;;5124005;28;20206;-67
2022/01/14 06:24:58;;;;;;;32.13;19.83;;;;;;;;;;5125136;28;20499;-67
2022/01/14 06:27:25;;;;;;;34.53;19.65;;;;;;;;;;5108402;28;20242;-65
2022/01/14 06:29:51;;;;;;;32.03;20.33;;;;;;;;;;5103172;28;20617;-65
2022/01/14 06:32:19;;;;;;;32.03;19.60;;;;;;;;;;5102917;28;20200;-65
2022/01/14 06:34:46;;;;;;;32.63;20.52;;;;;;;;;;5102740;28;20214;-65
2022/01/14 06:37:12;;;;;;;31.58;20.17;;;;;;;;;;5115790;28;20526;-65
2022/01/14 06:39:38;;;;;;;30.70;20.67;;;;;;;;;;5123472;28;20413;-65
2022/01/14 06:42:05;;;;;;;36.10;21.25;;;;;;;;;;5123413;28;20203;-65
2022/01/14 06:44:32;;;;;;;37.78;22.77;;;;;;;;;;5106323;28;20220;-65
2022/01/14 06:46:58;;;;;;;37.22;22.15;;;;;;;;;;5113433;28;20199;-65
2022/01/14 06:49:27;;;;;;;32.72;20.92;;;;;;;;;;5123285;28;20397;-65
2022/01/14 06:51:54;;;;;;;36.33;26.45;;;;;;;;;;5121985;28;20809;-67
2022/01/14 06:54:20;;;;;;;31.77;22.40;;;;;;;;;;5123076;28;20195;-67
2022/01/14 06:56:47;;;;;;;35.47;22.15;;;;;;;;;;5113088;28;20207;-70
2022/01/14 06:59:13;;;;;;;33.63;20.27;;;;;;;;;;5102389;28;20202;-70
2022/01/14 07:01:40;;;;;;;34.45;21.48;;;;;;;;;;5102496;28;20199;-70
2022/01/14 07:04:06;;;;;;;33.10;21.00;;;;;;;;;;5102465;28;20207;-70
2022/01/14 07:06:34;;;;;;;31.48;20.42;;;;;;;;;;5105436;28;20202;-70
2022/01/14 07:09:01;;;;;;;36.45;21.48;;;;;;;;;;5122409;28;20206;-69
2022/01/14 07:11:34;;;;;;;33.05;21.33;;;;;;;;;;5122830;28;20195;-69
2022/01/14 07:14:00;;;;;;;37.72;21.98;;;;;;;;;;5122796;28;20285;-69
2022/01/14 07:16:27;;;;;;;33.78;20.38;;;;;;;;;;5108742;28;20239;-69
2022/01/14 07:18:53;;;;;;;35.05;20.83;;;;;;;;;;5102042;28;20199;-69
2022/01/14 07:21:20;;;;;;;34.05;19.33;;;;;;;;;;5106388;28;20218;-69
2022/01/14 07:23:48;;;;;;;32.53;19.88;;;;;;;;;;5122084;28;20399;-69
2022/01/14 07:26:15;;;;;;;30.80;19.77;;;;;;;;;;5113368;28;20223;-69
2022/01/14 07:28:41;;;;;;;29.23;18.52;;;;;;;;;;5096518;28;20231;-69
2022/01/14 07:31:08;;;;;;;34.10;20.27;;;;;;;;;;5112363;27;20207;-69
2022/01/14 07:33:34;;;;;;;38.28;20.50;;;;;;;;;;5115627;28;20196;-69
2022/01/14 07:36:01;;;;;;;31.60;20.27;;;;;;;;;;5105332;27;20239;-68
2022/01/14 07:38:27;;;;;;;31.63;19.90;;;;;;;;;;5118593;27;20563;-69
2022/01/14 07:40:55;;;;;;;33.70;20.27;;;;;;;;;;5122042;27;20271;-69
2022/01/14 07:43:22;;;;;;;33.80;21.55;;;;;;;;;;5119751;27;20233;-69
2022/01/14 07:45:48;;;;;;;43.28;25.42;;;;;;;;;;5115320;28;20229;-69
2022/01/14 07:48:14;;;;;;;45.45;24.00;;;;;;;;;;5117371;28;20230;-69
2022/01/14 07:50:41;;;;;;;39.55;23.35;;;;;;;;;;5117301;28;20210;-53
2022/01/14 07:53:07;;;;;;;45.83;22.73;;;;;;;;;;5122924;27;20221;-54
2022/01/14 07:55:34;;;;;;;43.03;24.48;;;;;;;;;;5129807;27;20211;-53
2022/01/14 07:58:02;;;;;;;34.15;20.48;;;;;;;;;;5120353;28;20546;-58
2022/01/14 08:00:29;;;;;;;35.17;21.77;;;;;;;;;;5123444;28;20230;-59
2022/01/14 08:02:56;;;;;;;37.22;21.33;;;;;;;;;;5120060;28;20211;-54
2022/01/14 08:05:23;;;;;;;35.50;22.30;;;;;;;;;;5116278;28;20214;-55
2022/01/14 08:07:52;;;;;;;40.78;21.95;;;;;;;;;;5115457;28;20207;-53
2022/01/14 08:10:18;;;;;;;33.55;20.67;;;;;;;;;;5117075;28;20633;-56
2022/01/14 08:12:46;;;;;;;40.45;22.90;;;;;;;;;;5117213;28;20207;-54
2022/01/14 08:15:14;;;;;;;34.88;21.25;;;;;;;;;;5116754;28;20399;-55
2022/01/14 08:17:40;;;;;;;36.67;20.73;;;;;;;;;;5115473;28;20516;-55
2022/01/14 08:20:07;;;;;;;34.75;21.52;;;;;;;;;;5116723;28;20294;-60
2022/01/14 08:22:34;;;;;;;32.88;20.33;;;;;;;;;;5122523;28;20199;-60
2022/01/14 08:25:01;;;;;;;34.15;20.13;;;;;;;;;;5122100;28;20397;-60
2022/01/14 08:27:27;;;;;;;33.92;20.35;;;;;;;;;;5121324;28;20203;-60
2022/01/14 08:29:54;;;;;;;34.05;20.08;;;;;;;;;;5123132;28;20217;-59
2022/01/14 08:32:22;;;;;;;36.25;19.83;;;;;;;;;;5135578;27;20210;-59
2022/01/14 08:34:49;;;;;;;29.27;18.02;;;;;;;;;;5137136;27;20211;-59
2022/01/14 08:37:15;;;;;;;29.42;18.63;;;;;;;;;;5120427;28;20211;-59
2022/01/14 08:39:41;;;;;;;28.73;19.33;;;;;;;;;;5122023;28;20207;-59
2022/01/14 08:42:09;;;;;;;32.30;19.40;;;;;;;;;;5123335;28;20253;-59
2022/01/14 08:44:36;;;;;;;33.80;20.23;;;;;;;;;;5123250;28;20215;-60
2022/01/14 08:47:04;;;;;;;32.92;20.17;;;;;;;;;;5121933;28;20207;-60
2022/01/14 08:49:34;;;;;;;29.15;18.95;;;;;;;;;;5122073;27;20528;-61
2022/01/14 08:52:00;;;;;;;30.85;19.70;;;;;;;;;;5113144;28;20202;-59
2022/01/14 08:54:26;;;;;;;33.53;19.55;;;;;;;;;;5121105;28;20206;-59
2022/01/14 08:56:53;;;;;;;27.95;18.83;;;;;;;;;;5121890;28;20400;-60
2022/01/14 08:59:20;;;;;;;33.05;19.67;;;;;;;;;;5122198;28;20210;-60
2022/01/14 09:01:46;;;;;;;33.05;19.58;;;;;;;;;;5121740;28;20516;-60
2022/01/14 09:04:13;;;;;;;32.17;19.67;;;;;;;;;;5117960;28;20207;-56
2022/01/14 09:06:40;;;;;;;32.70;18.45;;;;;;;;;;5098677;28;20223;-56
2022/01/14 09:09:07;;;;;;;26.25;18.30;;;;;;;;;;5102796;28;20218;-56
2022/01/14 09:11:34;;;;;;;29.13;19.55;;;;;;;;;;5117362;28;20406;-57
2022/01/14 09:14:00;;;;;;;31.13;18.75;;;;;;;;;;5117614;28;20553;-55
2022/01/14 09:16:27;;;;;;;29.85;18.70;;;;;;;;;;5116355;28;20207;-57
2022/01/14 09:18:53;;;;;;;27.10;17.85;;;;;;;;;;5116848;28;20214;-57
2022/01/14 09:21:20;;;;;;;32.38;19.08;;;;;;;;;;5117012;28;20219;-55
2022/01/14 09:23:52;;;;;;;31.88;19.52;;;;;;;;;;5117054;28;20313;-56
2022/01/14 09:26:19;;;;;;;29.88;19.67;;;;;;;;;;5114858;28;20241;-56
2022/01/14 09:28:45;;;;;;;31.90;19.73;;;;;;;;;;5120845;28;20191;-60
2022/01/14 09:31:12;;;;;;;26.27;18.30;;;;;;;;;;5123318;28;20202;-60
2022/01/14 09:33:38;;;;;;;28.42;18.65;;;;;;;;;;5118312;28;20453;-59
2022/01/14 09:36:05;;;;;;;25.17;18.08;;;;;;;;;;5103463;28;20249;-59
2022/01/14 09:38:32;;;;;;;25.45;18.58;;;;;;;;;;5117641;28;20269;-59
2022/01/14 09:41:00;;;;;;;31.13;19.23;;;;;;;;;;5118872;28;20487;-56
2022/01/14 09:43:26;;;;;;;27.42;18.20;;;;;;;;;;5119019;28;20418;-56
2022/01/14 09:45:53;;;;;;;29.73;19.15;;;;;;;;;;5119234;28;20491;-54
2022/01/14 09:48:20;;;;;;;32.13;18.02;;;;;;;;;;5119432;28;20203;-56
2022/01/14 09:50:46;;;;;;;30.35;18.67;;;;;;;;;;5104850;28;20206;-54
2022/01/14 09:53:13;;;;;;;26.77;17.63;;;;;;;;;;5119686;28;20202;-55
2022/01/14 09:55:40;;;;;;;30.25;18.90;;;;;;;;;;5104049;28;20377;-59
2022/01/14 09:58:08;;;;;;;28.67;18.17;;;;;;;;;;5102273;28;20242;-56
2022/01/14 10:00:34;;;;;;;30.23;18.77;;;;;;;;;;5103592;28;20431;-56
2022/01/14 10:03:01;;;;;;;25.88;17.52;;;;;;;;;;5122003;28;20213;-56
2022/01/14 10:05:37;;;;;;;30.55;18.70;;;;;;;;;;5119965;28;20195;-58
2022/01/14 10:08:17;;;;;;;27.45;18.83;;;;;;;;;;5103058;28;20210;-59
2022/01/14 10:10:46;;;;;;;28.23;17.70;;;;;;;;;;5114759;28;20270;-60
2022/01/14 10:13:16;;;;;;;27.15;18.65;;;;;;;;;;5122754;28;20271;-59
2022/01/14 10:15:44;;;;;;;27.10;18.13;;;;;;;;;;5115162;27;20203;-59
2022/01/14 10:18:10;;;;;;;26.90;17.20;;;;;;;;;;5122037;27;20198;-59
2022/01/14 10:20:37;;;;;;;25.70;17.23;;;;;;;;;;5111125;28;20228;-59
2022/01/14 10:23:03;;;;;;;24.98;17.38;;;;;;;;;;5116657;28;20195;-59
2022/01/14 10:25:30;;;;;;;25.98;17.20;;;;;;;;;;5118087;28;20199;-59
2022/01/14 10:27:56;;;;;;;27.50;17.10;;;;;;;;;;5103197;28;20203;-59
2022/01/14 10:30:27;;;;;;;27.38;17.38;;;;;;;;;;5125445;27;20409;-59
2022/01/14 10:32:55;;;;;;;26.08;16.30;;;;;;;;;;5136153;27;20207;-59
2022/01/14 10:35:22;;;;;;;25.65;16.48;;;;;;;;;;5121405;28;20196;-59
2022/01/14 10:37:49;;;;;;;26.67;16.73;;;;;;;;;;5105061;28;20200;-59
2022/01/14 10:40:17;;;;;;;23.50;15.68;;;;;;;;;;5102228;28;20210;-58
2022/01/14 10:42:44;;;;;;;22.08;16.63;;;;;;;;;;5114789;28;20507;-57
2022/01/14 10:45:19;;;;;;;23.77;16.33;;;;;;;;;;5121269;28;20234;-59
2022/01/14 10:47:54;;;;;;;21.83;15.95;;;;;;;;;;5122823;28;20261;-59
2022/01/14 10:50:26;;;;;;;20.05;14.70;;;;;;;;;;5123064;28;20203;-59
2022/01/14 10:52:52;;;;;;;28.77;16.45;;;;;;;;;;5123203;28;20480;-58
2022/01/14 10:55:28;;;;;;;26.70;17.40;;;;;;;;;;5120916;28;20206;-57
2022/01/14 10:57:54;;;;;;;29.15;16.90;;;;;;;;;;5122791;28;20194;-53
2022/01/14 11:00:22;;;;;;;25.48;15.88;;;;;;;;;;5122335;28;20203;-53
2022/01/14 11:02:49;;;;;;;26.30;16.45;;;;;;;;;;5123279;28;20249;-53
2022/01/14 11:05:17;;;;;;;22.77;15.82;;;;;;;;;;5120853;28;20203;-54
2022/01/14 11:07:44;;;;;;;24.67;16.42;;;;;;;;;;5122600;28;20437;-54
2022/01/14 11:10:20;;;;;;;24.83;15.55;;;;;;;;;;5107458;28;20204;-54
2022/01/14 11:12:47;;;;;;;23.55;16.38;;;;;;;;;;5117697;28;20537;-53
2022/01/14 11:15:14;;;;;;;22.98;16.13;;;;;;;;;;5121531;28;20202;-58
2022/01/14 11:17:41;;;;;;;26.08;17.30;;;;;;;;;;5122737;28;20244;-58
2022/01/14 11:20:09;;;;;;;23.02;16.77;;;;;;;;;;5111324;28;20253;-59
2022/01/14 11:25:21;;;;;;;23.38;16.45;;;;;;;;;;5121193;28;20218;-59
2022/01/14 11:27:50;;;;;;;28.08;16.45;;;;;;;;;;5122677;28;20406;-58
2022/01/14 11:30:16;;;;;;;26.20;17.02;;;;;;;;;;5132011;27;20229;-59
2022/01/14 11:32:52;;;;;;;23.23;16.50;;;;;;;;;;5122276;27;20406;-59
2022/01/14 11:35:22;;;;;;;24.83;16.30;;;;;;;;;;5102931;28;20446;-58
2022/01/14 11:37:50;;;;;;;24.85;16.23;;;;;;;;;;5121640;28;20210;-54
2022/01/14 11:40:16;;;;;;;24.73;16.30;;;;;;;;;;5122111;28;20210;-54
2022/01/14 11:42:44;;;;;;;25.25;16.13;;;;;;;;;;5121894;28;20420;-54
2022/01/14 11:45:11;;;;;;;22.63;15.93;;;;;;;;;;5121095;28;20249;-56
2022/01/14 11:47:48;;;;;;;21.65;14.98;;;;;;;;;;5118426;28;20514;-55
2022/01/14 11:50:29;;;;;;;24.25;15.60;;;;;;;;;;5121323;28;20248;-57
2022/01/14 11:52:59;;;;;;;21.70;15.23;;;;;;;;;;5121434;28;20406;-56
2022/01/14 11:55:38;;;;;;;20.15;14.45;;;;;;;;;;5121652;28;20441;-57
2022/01/14 11:58:05;;;;;;;21.05;15.48;;;;;;;;;;5120514;28;20197;-58
2022/01/14 12:00:37;;;;;;;22.17;14.45;;;;;;;;;;5103337;28;20215;-57
2022/01/14 12:03:21;;;;;;;19.27;14.32;;;;;;;;;;5117432;27;20191;-57
2022/01/14 12:05:53;;;;;;;20.02;14.80;;;;;;;;;;5113912;28;20484;-58
2022/01/14 12:08:21;;;;;;;21.73;14.95;;;;;;;;;;5111559;28;20285;-58
2022/01/14 12:10:49;;;;;;;22.45;14.40;;;;;;;;;;5120185;28;20207;-58
2022/01/14 12:13:27;;;;;;;18.08;14.68;;;;;;;;;;5108688;28;20196;-61
2022/01/14 12:15:58;;;;;;;17.92;13.82;;;;;;;;;;5115371;28;20242;-60
2022/01/14 12:18:43;;;;;;;25.90;16.33;;;;;;;;;;5123398;27;20229;-61
2022/01/14 12:21:09;;;;;;;19.55;14.07;;;;;;;;;;5116554;28;20219;-61
2022/01/14 12:23:37;;;;;;;19.45;14.43;;;;;;;;;;5117011;28;20511;-59
2022/01/14 12:26:13;;;;;;;21.20;14.63;;;;;;;;;;5113773;28;20199;-60
2022/01/14 12:28:40;;;;;;;21.63;13.25;;;;;;;;;;5119805;28;20187;-61
2022/01/14 12:31:06;;;;;;;20.70;14.27;;;;;;;;;;5143146;27;20413;-59
2022/01/14 12:33:39;;;;;;;17.73;12.98;;;;;;;;;;5145522;27;20196;-60
2022/01/14 12:36:08;;;;;;;16.10;12.38;;;;;;;;;;5103585;28;20428;-60
2022/01/14 12:38:35;;;;;;;16.88;12.30;;;;;;;;;;5107981;28;20207;-60
2022/01/14 12:41:03;;;;;;;17.45;13.10;;;;;;;;;;5123854;28;20199;-61
2022/01/14 12:43:30;;;;;;;16.38;12.38;;;;;;;;;;5123514;28;20526;-60
2022/01/14 12:46:13;;;;;;;15.27;12.75;;;;;;;;;;5101723;28;20474;-59
2022/01/14 12:48:50;;;;;;;16.88;13.27;;;;;;;;;;5097595;28;20250;-61
2022/01/14 12:51:18;;;;;;;16.10;12.27;;;;;;;;;;5126519;27;20202;-61
2022/01/14 12:53:48;;;;;;;18.58;12.95;;;;;;;;;;5119880;27;20531;-61
2022/01/14 12:56:16;;;;;;;13.05;11.00;;;;;;;;;;5115302;28;20549;-61
2022/01/14 12:58:53;;;;;;;18.77;11.88;;;;;;;;;;5116161;28;20207;-60
2022/01/14 13:01:19;;;;;;;17.30;12.57;;;;;;;;;;5113365;28;20223;-59
2022/01/14 13:03:46;;;;;;;19.15;13.00;;;;;;;;;;5116245;28;20199;-61
2022/01/14 13:06:12;;;;;;;16.23;11.95;;;;;;;;;;5114662;28;20207;-60
2022/01/14 13:08:39;;;;;;;25.52;12.98;;;;;;;;;;5099927;28;20542;-61
2022/01/14 13:11:06;;;;;;;14.90;12.13;;;;;;;;;;5108437;28;20211;-60
2022/01/14 13:13:33;;;;;;;19.67;11.30;;;;;;;;;;5116109;28;20214;-60
2022/01/14 13:16:05;;;;;;;18.73;11.35;;;;;;;;;;5116504;28;20213;-61
2022/01/14 13:18:37;;;;;;;14.20;10.88;;;;;;;;;;5108633;28;20253;-61
2022/01/14 13:21:04;;;;;;;16.25;11.38;;;;;;;;;;5111576;28;20274;-61
2022/01/14 13:23:30;;;;;;;19.63;12.00;;;;;;;;;;5107916;28;20527;-60
2022/01/14 13:26:00;;;;;;;14.23;11.82;;;;;;;;;;5099364;27;20215;-58
2022/01/14 13:28:26;;;;;;;17.67;12.05;;;;;;;;;;5120582;27;20214;-57
2022/01/14 13:30:54;;;;;;;13.60;10.95;;;;;;;;;;5124878;27;20198;-59
2022/01/14 13:33:22;;;;;;;18.52;11.25;;;;;;;;;;5113924;28;20203;-61
2022/01/14 13:35:49;;;;;;;14.52;11.07;;;;;;;;;;5108672;28;20207;-61
2022/01/14 13:38:16;;;;;;;15.55;10.80;;;;;;;;;;5108799;28;20218;-60
2022/01/14 13:40:44;;;;;;;18.55;11.07;;;;;;;;;;5113934;28;20214;-61
2022/01/14 13:43:12;;;;;;;16.38;10.88;;;;;;;;;;5117538;28;20562;-61
2022/01/14 13:45:40;;;;;;;17.48;10.85;;;;;;;;;;5112994;28;20288;-61
2022/01/14 13:48:10;;;;;;;13.98;10.07;;;;;;;;;;5117337;28;20210;-61
2022/01/14 13:50:38;;;;;;;13.05;10.43;;;;;;;;;;5116881;28;20207;-61
2022/01/14 13:53:04;;;;;;;17.00;10.50;;;;;;;;;;5118780;28;20542;-61
2022/01/14 13:55:32;;;;;;;12.55;9.57;;;;;;;;;;5123035;28;20198;-61
2022/01/14 13:58:03;;;;;;;12.85;10.60;;;;;;;;;;5098502;28;20216;-61
2022/01/14 14:00:30;;;;;;;14.45;10.40;;;;;;;;;;5114984;28;20217;-61
2022/01/14 14:02:57;;;;;;;17.52;10.93;;;;;;;;;;5116099;28;20280;-61
2022/01/14 14:05:35;;;;;;;11.93;10.65;;;;;;;;;;5116875;28;20217;-61
2022/01/14 14:08:11;;;;;;;16.45;10.07;;;;;;;;;;5103339;28;20207;-56
2022/01/14 14:11:48;;;;;;;24.70;14.80;;;;;;;;;;5102058;28;20210;-57
2022/01/14 14:16:29;;;;;;;24.17;14.63;;;;;;;;;;5113812;28;20241;-55
2022/01/14 14:18:56;;;;;;;26.80;14.52;;;;;;;;;;5103966;28;20234;-56
2022/01/14 14:21:24;;;;;;;29.02;15.15;;;;;;;;;;5107737;28;20210;-56
2022/01/14 14:23:54;;;;;;;29.13;17.13;;;;;;;;;;5114079;28;20211;-55
2022/01/14 14:26:29;;;;;;;27.52;16.88;;;;;;;;;;5114378;28;20207;-57
2022/01/14 14:28:55;;;;;;;21.42;13.43;;;;;;;;;;5114140;28;20247;-57
2022/01/14 14:31:29;;;;;;;23.65;14.35;;;;;;;;;;5134309;28;20510;-56
2022/01/14 14:33:55;;;;;;;23.25;13.40;;;;;;;;;;5115299;28;20484;-57
2022/01/14 14:36:25;;;;;;;18.67;12.07;;;;;;;;;;5113261;28;20211;-57
2022/01/14 14:38:54;;;;;;;20.67;11.38;;;;;;;;;;5114817;28;20568;-57
2022/01/14 14:41:20;;;;;;;19.67;11.70;;;;;;;;;;5114614;28;20207;-57
2022/01/14 14:43:47;;;;;;;20.02;10.63;;;;;;;;;;5116285;28;20214;-55